Time;durP1;ratioP1;P1;durP2;ratioP2;P2;SDS_P1;SDS_P2;PMS_P1;PMS_P2;Temp;Humidity;BMP_temperature;BMP_pressure;BME280_temperature;BME280_humidity;BME280_pressure;Samples;Min_cycle;Max_cycle;Signal;HPM_P1;HPM_P2
2021/10/15 00:07:07;;;;;;;24.40;14.20;;;;;;;11.06;100.00;100184.66;712662;1178;114338;-71
2021/10/15 00:22:09;;;;;;;25.47;13.23;;;;;;;11.10;100.00;100171.13;713538;1202;114932;-72
2021/10/15 00:37:12;;;;;;;26.38;12.33;;;;;;;11.17;100.00;100155.63;713354;1203;116167;-72
2021/10/15 00:52:15;;;;;;;103.33;31.00;;;;;;;11.20;100.00;100152.72;712723;1203;114454;-71
2021/10/15 01:07:17;;;;;;;88.25;30.15;;;;;;;11.28;100.00;100136.25;713236;1206;116203;-72
2021/10/15 01:22:19;;;;;;;43.48;23.48;;;;;;;11.39;100.00;100125.58;714415;1200;115942;-70
2021/10/15 01:37:22;;;;;;;103.60;35.00;;;;;;;11.47;100.00;100123.05;713067;1180;114664;-71
2021/10/15 01:52:24;;;;;;;139.37;46.67;;;;;;;11.49;100.00;100102.73;712664;1204;114838;-71
2021/10/15 02:07:26;;;;;;;52.17;22.20;;;;;;;11.51;100.00;100093.85;712671;1202;115760;-71
2021/10/15 02:22:28;;;;;;;86.80;33.55;;;;;;;11.62;100.00;100099.73;712615;1202;114982;-72
2021/10/15 02:37:31;;;;;;;32.55;16.05;;;;;;;11.65;100.00;100078.45;712537;1203;114628;-71
2021/10/15 02:52:33;;;;;;;92.45;29.78;;;;;;;11.69;100.00;100075.52;712637;1202;116169;-71
2021/10/15 03:07:35;;;;;;;60.63;24.93;;;;;;;11.66;100.00;100076.63;712487;1206;114670;-71
2021/10/15 03:22:37;;;;;;;75.60;24.93;;;;;;;11.70;100.00;100072.73;712603;1205;115443;-72
2021/10/15 03:37:40;;;;;;;33.75;17.30;;;;;;;11.66;100.00;100051.17;712350;1202;115582;-70
2021/10/15 03:52:42;;;;;;;29.53;16.40;;;;;;;11.65;100.00;100046.91;712511;1202;114938;-70
2021/10/15 04:07:44;;;;;;;27.50;14.67;;;;;;;11.62;100.00;100054.26;712613;1206;115753;-70
2021/10/15 04:22:46;;;;;;;26.20;16.03;;;;;;;11.64;100.00;100039.19;712621;1202;116694;-71
2021/10/15 04:37:49;;;;;;;25.45;15.95;;;;;;;11.64;100.00;100045.25;712719;1206;114462;-72
2021/10/15 04:52:51;;;;;;;32.87;17.70;;;;;;;11.57;100.00;100022.34;712432;1202;114479;-71
2021/10/15 05:07:55;;;;;;;31.30;18.17;;;;;;;11.45;100.00;100017.28;712692;1196;114380;-72
2021/10/15 05:22:58;;;;;;;28.50;18.20;;;;;;;11.56;100.00;100012.80;712784;1202;115416;-72
2021/10/15 05:38:00;;;;;;;34.23;19.18;;;;;;;11.55;100.00;100008.55;712608;1202;114632;-82
2021/10/15 05:53:08;;;;;;;36.28;20.23;;;;;;;11.61;100.00;100006.16;713236;1202;115026;-82
2021/10/15 06:23:48;;;;;;;37.80;20.40;;;;;;;11.75;100.00;100002.16;712473;1180;115098;-81
2021/10/15 06:38:50;;;;;;;37.63;22.78;;;;;;;11.86;100.00;100003.73;712906;1206;115170;-80
2021/10/15 06:53:52;;;;;;;35.23;20.33;;;;;;;12.02;100.00;100000.45;712934;1183;114435;-82
2021/10/15 07:08:55;;;;;;;39.90;23.20;;;;;;;12.02;100.00;99986.49;712865;1202;116744;-80
2021/10/15 07:23:58;;;;;;;33.70;20.60;;;;;;;12.08;100.00;99994.59;712927;1206;115444;-81
2021/10/15 07:39:01;;;;;;;43.35;23.20;;;;;;;12.11;100.00;99994.28;713177;1196;115201;-80
2021/10/15 07:54:04;;;;;;;37.70;22.05;;;;;;;12.12;100.00;99981.98;712871;1202;116147;-82
2021/10/15 08:09:06;;;;;;;43.85;24.70;;;;;;;12.27;100.00;99966.47;713338;1206;113892;-84
2021/10/15 08:24:10;;;;;;;40.53;24.48;;;;;;;12.36;100.00;99962.91;713553;1205;114473;-81
2021/10/15 08:39:17;;;;;;;47.15;27.80;;;;;;;12.55;100.00;99958.41;713762;1179;114188;-78
2021/10/15 08:54:20;;;;;;;50.30;27.60;;;;;;;12.68;100.00;99958.81;712855;1203;114836;-77
2021/10/15 09:09:27;;;;;;;46.90;27.70;;;;;;;12.88;100.00;99932.25;715263;1202;115543;-77
2021/10/15 09:24:36;;;;;;;46.65;27.45;;;;;;;13.10;100.00;99933.48;714833;1202;115845;-77
2021/10/15 09:39:38;;;;;;;47.83;26.83;;;;;;;13.30;100.00;99918.21;713410;1202;115429;-76
2021/10/15 09:54:41;;;;;;;40.47;25.07;;;;;;;13.38;100.00;99912.17;713202;1206;114510;-76
2021/10/15 10:09:45;;;;;;;44.18;23.78;;;;;;;13.46;100.00;99884.03;713615;1202;115727;-76
2021/10/15 10:24:51;;;;;;;32.87;21.77;;;;;;;13.74;100.00;99861.80;713923;1202;115970;-76
2021/10/15 10:40:09;;;;;;;29.90;20.20;;;;;;;14.23;100.00;99845.87;713384;1202;114846;-76
2021/10/15 10:55:36;;;;;;;25.43;16.80;;;;;;;14.73;100.00;99848.35;713700;1202;114835;-74
2021/10/15 11:10:39;;;;;;;29.15;18.05;;;;;;;14.73;100.00;99835.16;713561;1203;115754;-73
2021/10/15 11:25:47;;;;;;;24.80;15.50;;;;;;;14.51;100.00;99845.44;713383;1202;114943;-73
2021/10/15 11:40:53;;;;;;;24.77;15.10;;;;;;;14.26;100.00;99813.05;713400;1202;115971;-73
2021/10/15 11:55:56;;;;;;;43.23;29.73;;;;;;;14.76;100.00;99816.31;713408;1202;115565;-74
2021/10/15 12:10:58;;;;;;;28.70;20.63;;;;;;;15.33;100.00;99796.59;713138;1203;115039;-74
2021/10/15 12:26:21;;;;;;;20.83;13.43;;;;;;;15.52;100.00;99789.99;712860;1206;114878;-73
2021/10/15 12:41:26;;;;;;;19.57;12.47;;;;;;;15.14;100.00;99787.34;713274;1202;114492;-79
2021/10/15 12:56:34;;;;;;;18.90;11.40;;;;;;;14.97;100.00;99794.56;712810;1203;115665;-77
2021/10/15 13:11:36;;;;;;;24.97;12.70;;;;;;;14.85;100.00;99795.97;713405;1202;114956;-77
2021/10/15 13:26:38;;;;;;;16.13;10.93;;;;;;;14.62;100.00;99783.52;712763;1202;114846;-78
2021/10/15 13:57:23;;;;;;;15.30;10.50;;;;;;;14.54;100.00;99751.90;712362;1203;114709;-77
2021/10/15 14:12:26;;;;;;;15.65;10.20;;;;;;;14.54;100.00;99746.62;713124;1185;114047;-76
2021/10/15 14:27:29;;;;;;;62.65;52.88;;;;;;;14.60;100.00;99759.94;713040;1203;115418;-76
2021/10/15 14:42:33;;;;;;;16.80;10.05;;;;;;;14.54;100.00;99742.15;712941;1203;115967;-75
2021/10/15 14:57:36;;;;;;;19.18;10.68;;;;;;;14.49;100.00;99739.23;712724;1177;114360;-75
2021/10/15 15:12:39;;;;;;;14.23;9.75;;;;;;;14.38;100.00;99750.17;713124;1202;115204;-75
2021/10/15 15:27:42;;;;;;;15.23;9.90;;;;;;;14.30;100.00;99749.20;713226;1177;114134;-73
2021/10/15 15:42:44;;;;;;;15.70;9.33;;;;;;;14.21;100.00;99752.06;713059;1202;114212;-74
2021/10/15 15:57:49;;;;;;;18.28;10.85;;;;;;;14.14;100.00;99771.20;712953;1203;114570;-74
2021/10/15 16:12:51;;;;;;;19.40;14.60;;;;;;;13.80;100.00;99787.30;713126;1202;114876;-76
2021/10/15 16:27:55;;;;;;;39.97;24.07;;;;;;;13.21;100.00;99819.09;712571;1202;114709;-74
2021/10/15 16:42:57;;;;;;;22.55;12.20;;;;;;;12.78;100.00;99809.50;712503;1197;114421;-74
2021/10/15 16:57:59;;;;;;;24.03;13.60;;;;;;;12.62;100.00;99820.00;712613;1180;114770;-78
2021/10/15 17:13:02;;;;;;;23.25;12.53;;;;;;;12.39;100.00;99902.13;712678;1203;115785;-77
2021/10/15 17:28:06;;;;;;;26.10;11.95;;;;;;;11.25;100.00;99908.11;712810;1206;114305;-76
2021/10/15 17:43:08;;;;;;;22.90;11.73;;;;;;;10.88;100.00;99930.02;713255;1203;115910;-82
2021/10/15 17:58:10;;;;;;;64.33;22.97;;;;;;;10.70;100.00;99943.06;712699;1203;115690;-80
2021/10/15 18:13:13;;;;;;;63.70;19.87;;;;;;;10.42;100.00;99951.70;712889;1202;115591;-79
2021/10/15 18:28:15;;;;;;;27.40;11.43;;;;;;;10.30;100.00;99968.55;712807;1190;114533;-73
2021/10/15 18:43:18;;;;;;;23.78;12.10;;;;;;;10.14;100.00;99969.95;712869;1178;114879;-72
2021/10/15 18:58:21;;;;;;;14.70;7.83;;;;;;;9.95;100.00;100004.88;712725;1206;114294;-75
2021/10/15 19:13:26;;;;;;;25.43;13.35;;;;;;;9.85;100.00;100005.84;713318;1202;114632;-77
2021/10/15 19:28:29;;;;;;;27.78;8.08;;;;;;;9.73;100.00;100003.34;713616;1199;114142;-76
2021/10/15 19:43:32;;;;;;;15.70;7.33;;;;;;;9.70;100.00;100018.49;712763;1181;114577;-76
2021/10/15 19:58:35;;;;;;;16.65;7.38;;;;;;;9.51;100.00;100035.83;712781;1202;114247;-73
2021/10/15 20:13:37;;;;;;;26.63;15.63;;;;;;;9.42;100.00;100040.10;714774;1203;115712;-76
2021/10/15 20:28:40;;;;;;;131.57;44.57;;;;;;;9.35;100.00;100057.29;713176;1202;114386;-78
2021/10/15 20:43:44;;;;;;;64.53;25.03;;;;;;;9.20;100.00;100048.13;712713;1202;115607;-78
2021/10/15 20:58:47;;;;;;;65.13;25.33;;;;;;;9.05;100.00;100079.88;712727;1202;115061;-75
2021/10/15 21:13:49;;;;;;;48.97;15.87;;;;;;;9.08;100.00;100087.50;713505;1202;115781;-78
2021/10/15 21:28:52;;;;;;;173.10;40.25;;;;;;;9.08;100.00;100087.50;713095;1180;115769;-76
2021/10/15 21:43:54;;;;;;;20.05;9.58;;;;;;;9.21;100.00;100102.14;713121;1203;114982;-77
2021/10/15 21:58:56;;;;;;;13.20;5.40;;;;;;;9.39;100.00;100111.03;713170;1203;114465;-76
2021/10/15 22:13:58;;;;;;;9.33;4.90;;;;;;;9.33;100.00;100101.93;713024;1190;113797;-76
2021/10/15 22:29:01;;;;;;;10.87;5.30;;;;;;;9.20;100.00;100121.42;713012;1202;114178;-76
2021/10/15 22:44:03;;;;;;;22.85;8.98;;;;;;;9.21;100.00;100139.63;713173;1202;114952;-76
2021/10/15 22:59:12;;;;;;;17.73;6.50;;;;;;;9.27;100.00;100151.36;713182;1203;115345;-76
2021/10/15 23:14:14;;;;;;;9.00;5.10;;;;;;;9.38;100.00;100161.73;713024;1202;114279;-76
2021/10/15 23:29:16;;;;;;;11.88;5.18;;;;;;;9.39;100.00;100176.48;713548;1203;112842;-76
2021/10/15 23:44:19;;;;;;;15.33;6.10;;;;;;;9.37;100.00;100183.66;713166;1185;113774;-76
2021/10/15 23:59:21;;;;;;;12.38;6.13;;;;;;;9.36;100.00;100195.09;713032;1202;114478;-76
